Time,TemperatureF,DewpointF,PressureIn,WindDirection,WindDirectionDegrees,WindSpeedMPH,WindSpeedGustMPH,Humidity,HourlyPrecipIn,Conditions,Clouds,dailyrainin,SoftwareType,DateUTC
2013-02-27 06:25:00,45.1,40.0,30.19,North,-999,-999.0,-999.0,82,-99.99,,,-99.99,Netatmo,2013-02-27 05:25:00,
2013-02-27 09:27:00,48.6,43.9,30.22,North,-999,-999.0,-999.0,84,-99.99,,,-99.99,Netatmo,2013-02-27 08:27:00,
2013-02-27 09:32:00,48.9,44.3,30.22,North,-999,-999.0,-999.0,84,-99.99,,,-99.99,Netatmo,2013-02-27 08:32:00,
2013-02-27 09:37:00,48.9,44.3,30.22,North,-999,-999.0,-999.0,84,-99.99,,,-99.99,Netatmo,2013-02-27 08:37:00,
2013-02-27 09:42:00,49.1,44.5,30.22,North,-999,-999.0,-999.0,84,-99.99,,,-99.99,Netatmo,2013-02-27 08:42:00,
2013-02-27 09:47:00,49.1,44.5,30.22,North,-999,-999.0,-999.0,84,-99.99,,,-99.99,Netatmo,2013-02-27 08:47:00,
2013-02-27 09:52:00,49.3,44.3,30.22,North,-999,-999.0,-999.0,83,-99.99,,,-99.99,Netatmo,2013-02-27 08:52:00,
2013-02-27 09:57:00,49.3,44.3,30.22,North,-999,-999.0,-999.0,83,-99.99,,,-99.99,Netatmo,2013-02-27 08:57:00,
2013-02-27 10:02:00,49.6,44.7,30.22,North,-999,-999.0,-999.0,83,-99.99,,,-99.99,Netatmo,2013-02-27 09:02:00,
2013-02-27 10:07:00,49.6,44.7,30.22,North,-999,-999.0,-999.0,83,-99.99,,,-99.99,Netatmo,2013-02-27 09:07:00,
2013-02-27 10:12:00,49.8,44.9,30.22,North,-999,-999.0,-999.0,83,-99.99,,,-99.99,Netatmo,2013-02-27 09:12:00,
2013-02-27 10:17:00,49.8,44.9,30.22,North,-999,-999.0,-999.0,83,-99.99,,,-99.99,Netatmo,2013-02-27 09:17:00,
2013-02-27 10:22:00,50.0,45.0,30.23,North,-999,-999.0,-999.0,83,-99.99,,,-99.99,Netatmo,2013-02-27 09:22:00,
2013-02-27 10:27:00,50.0,45.0,30.23,North,-999,-999.0,-999.0,83,-99.99,,,-99.99,Netatmo,2013-02-27 09:27:00,
2013-02-27 10:32:00,50.4,45.1,30.24,North,-999,-999.0,-999.0,82,-99.99,,,-99.99,Netatmo,2013-02-27 09:32:00,
2013-02-27 10:37:00,50.4,45.1,30.24,North,-999,-999.0,-999.0,82,-99.99,,,-99.99,Netatmo,2013-02-27 09:37:00,
2013-02-27 10:42:00,50.5,45.3,30.23,North,-999,-999.0,-999.0,82,-99.99,,,-99.99,Netatmo,2013-02-27 09:42:00,
2013-02-27 10:47:00,50.5,45.3,30.23,North,-999,-999.0,-999.0,82,-99.99,,,-99.99,Netatmo,2013-02-27 09:47:00,
2013-02-27 10:52:00,50.9,45.3,30.24,North,-999,-999.0,-999.0,81,-99.99,,,-99.99,Netatmo,2013-02-27 09:52:00,
2013-02-27 10:57:00,50.9,45.3,30.24,North,-999,-999.0,-999.0,81,-99.99,,,-99.99,Netatmo,2013-02-27 09:57:00,
2013-02-27 18:12:00,52.3,41.4,30.24,North,-999,-999.0,-999.0,66,-99.99,,,-99.99,Netatmo,2013-02-27 17:12:00,
2013-02-27 21:03:00,47.8,38.6,30.26,North,-999,-999.0,-999.0,70,-99.99,,,-99.99,Netatmo,2013-02-27 20:03:00,